Time;durP1;ratioP1;P1;durP2;ratioP2;P2;SDS_P1;SDS_P2;PMS_P1;PMS_P2;Temp;Humidity;BMP_temperature;BMP_pressure;BME280_temperature;BME280_humidity;BME280_pressure;Samples;Min_cycle;Max_cycle;Signal;HPM_P1;HPM_P2
2023/07/16 00:01:20;;;;;;;;;;;25.20;51.30;;;;;;6275644;22;20317;-76
2023/07/16 00:03:45;;;;;;;;;;;25.20;51.40;;;;;;6248818;22;19919;-77
2023/07/16 00:06:10;;;;;;;;;;;25.20;51.40;;;;;;6270527;22;19903;-76
2023/07/16 00:08:36;;;;;;;;;;;25.10;51.40;;;;;;6276063;22;19915;-76
2023/07/16 00:11:03;;;;;;;;;;;25.10;51.40;;;;;;6275391;22;19903;-76
2023/07/16 00:13:28;;;;;;;;;;;25.00;51.50;;;;;;6248580;22;20353;-77
2023/07/16 00:15:54;;;;;;;;;;;25.00;51.60;;;;;;6248378;22;19904;-75
2023/07/16 00:18:20;;;;;;;;;;;24.90;51.60;;;;;;6248489;22;20344;-76
2023/07/16 00:20:45;;;;;;;;;;;24.80;51.80;;;;;;6275838;22;19914;-77
2023/07/16 00:23:10;;;;;;;;;;;24.80;51.90;;;;;;6275481;22;19916;-76
2023/07/16 00:25:36;;;;;;;;;;;24.80;52.00;;;;;;6275466;22;19927;-76
2023/07/16 00:28:02;;;;;;;;;;;24.80;51.90;;;;;;6275768;22;19919;-77
2023/07/16 00:30:28;;;;;;;;;;;24.80;51.90;;;;;;6275728;22;19946;-76
2023/07/16 00:32:53;;;;;;;;;;;24.80;51.90;;;;;;6275641;22;19911;-76
2023/07/16 00:35:19;;;;;;;;;;;24.80;51.90;;;;;;6275578;22;20343;-73
2023/07/16 00:37:45;;;;;;;;;;;24.80;51.90;;;;;;6275751;22;20280;-77
2023/07/16 00:40:10;;;;;;;;;;;24.80;51.80;;;;;;6275447;22;19903;-76
2023/07/16 00:42:36;;;;;;;;;;;24.90;51.80;;;;;;6247981;22;19911;-76
2023/07/16 00:45:01;;;;;;;;;;;24.80;52.20;;;;;;6275618;22;19953;-74
2023/07/16 00:47:27;;;;;;;;;;;24.60;54.70;;;;;;6248190;22;19911;-75
2023/07/16 00:49:53;;;;;;;;;;;24.30;56.50;;;;;;6248483;22;19915;-75
2023/07/16 00:52:18;;;;;;;;;;;24.10;58.10;;;;;;6275950;22;19960;-75
2023/07/16 00:54:44;;;;;;;;;;;24.00;59.40;;;;;;6276037;22;19912;-75
2023/07/16 00:57:10;;;;;;;;;;;23.90;60.20;;;;;;6275337;22;19982;-75
2023/07/16 00:59:35;;;;;;;;;;;23.80;61.10;;;;;;6275749;22;19935;-76
2023/07/16 01:02:00;;;;;;;;;;;23.80;61.60;;;;;;6275506;22;19904;-75
2023/07/16 01:04:26;;;;;;;;;;;23.80;61.70;;;;;;6275750;22;20278;-75
2023/07/16 01:06:53;;;;;;;;;;;23.70;62.10;;;;;;6275223;22;19978;-75
2023/07/16 01:09:19;;;;;;;;;;;23.60;62.30;;;;;;6275788;22;19918;-76
2023/07/16 01:11:45;;;;;;;;;;;23.60;62.40;;;;;;6275383;22;19910;-76
2023/07/16 01:14:12;;;;;;;;;;;23.50;62.80;;;;;;6275512;22;20266;-76
2023/07/16 01:16:37;;;;;;;;;;;23.50;63.00;;;;;;6274956;22;19978;-76
2023/07/16 01:19:03;;;;;;;;;;;23.50;63.10;;;;;;6275367;22;19953;-77
2023/07/16 01:21:34;;;;;;;;;;;23.50;63.30;;;;;;6275069;22;19954;-77
2023/07/16 01:24:05;;;;;;;;;;;23.50;63.40;;;;;;6247901;22;19915;-78
2023/07/16 01:26:49;;;;;;;;;;;23.50;62.90;;;;;;6275013;22;19970;-75
2023/07/16 01:29:20;;;;;;;;;;;23.60;63.20;;;;;;6275138;22;20292;-77
2023/07/16 01:31:46;;;;;;;;;;;23.50;63.20;;;;;;6275259;22;19903;-77
2023/07/16 01:34:12;;;;;;;;;;;23.60;63.00;;;;;;6274819;22;19918;-77
2023/07/16 01:36:39;;;;;;;;;;;23.70;63.30;;;;;;6274966;22;19903;-77
2023/07/16 01:39:05;;;;;;;;;;;23.70;63.30;;;;;;6275355;22;19912;-76
2023/07/16 01:41:30;;;;;;;;;;;23.70;63.20;;;;;;6274945;22;20349;-74
2023/07/16 01:43:56;;;;;;;;;;;23.70;62.60;;;;;;6275251;22;19951;-77
2023/07/16 01:46:21;;;;;;;;;;;23.70;62.30;;;;;;6274771;22;19911;-77
2023/07/16 01:48:47;;;;;;;;;;;23.70;62.30;;;;;;6275338;22;19923;-77
2023/07/16 01:51:14;;;;;;;;;;;23.70;62.50;;;;;;6274684;22;19903;-77
2023/07/16 01:53:39;;;;;;;;;;;23.70;62.30;;;;;;6274998;22;19918;-77
2023/07/16 01:56:05;;;;;;;;;;;23.70;61.90;;;;;;6274589;22;19911;-77
2023/07/16 01:58:30;;;;;;;;;;;23.70;61.90;;;;;;6274975;22;19911;-74
2023/07/16 02:00:56;;;;;;;;;;;23.70;61.20;;;;;;6274824;22;19913;-77
2023/07/16 02:03:21;;;;;;;;;;;23.70;61.40;;;;;;6274795;22;20340;-74
2023/07/16 02:05:47;;;;;;;;;;;23.60;61.50;;;;;;6274946;22;20321;-77
2023/07/16 02:08:13;;;;;;;;;;;23.60;61.70;;;;;;6274782;22;19915;-76
2023/07/16 02:10:38;;;;;;;;;;;23.50;61.50;;;;;;6274647;22;19903;-77
2023/07/16 02:13:04;;;;;;;;;;;23.50;61.20;;;;;;6276186;22;19912;-76
2023/07/16 02:15:29;;;;;;;;;;;23.50;61.40;;;;;;6277963;22;19978;-76
2023/07/16 02:17:54;;;;;;;;;;;23.40;61.30;;;;;;6278051;22;19952;-77
2023/07/16 02:20:20;;;;;;;;;;;23.40;61.10;;;;;;6251201;22;19954;-76
2023/07/16 02:22:45;;;;;;;;;;;23.30;61.20;;;;;;6277812;22;19914;-77
2023/07/16 02:25:11;;;;;;;;;;;23.30;61.50;;;;;;6277933;22;19965;-77
2023/07/16 02:27:36;;;;;;;;;;;23.30;61.20;;;;;;6277872;22;20241;-76
2023/07/16 02:30:02;;;;;;;;;;;23.20;61.30;;;;;;6278055;22;19914;-76
2023/07/16 02:32:27;;;;;;;;;;;23.30;61.20;;;;;;6278041;22;19910;-75
2023/07/16 02:34:53;;;;;;;;;;;23.30;61.20;;;;;;6278542;22;20280;-75
2023/07/16 02:37:18;;;;;;;;;;;23.30;60.80;;;;;;6278221;22;19903;-75
2023/07/16 02:39:45;;;;;;;;;;;23.30;61.00;;;;;;6278429;22;19915;-75
2023/07/16 02:42:10;;;;;;;;;;;23.30;60.90;;;;;;6277903;22;20198;-76
2023/07/16 02:44:41;;;;;;;;;;;23.30;61.00;;;;;;6278471;22;19950;-75
2023/07/16 02:47:07;;;;;;;;;;;23.30;60.90;;;;;;6277962;22;19939;-75
2023/07/16 02:49:32;;;;;;;;;;;23.20;60.70;;;;;;6251016;22;19911;-76
2023/07/16 02:51:58;;;;;;;;;;;23.20;60.80;;;;;;6277803;22;19907;-76
2023/07/16 02:54:23;;;;;;;;;;;23.10;60.90;;;;;;6278503;22;19912;-75
2023/07/16 02:56:49;;;;;;;;;;;23.00;60.90;;;;;;6277986;22;19912;-75
2023/07/16 02:59:14;;;;;;;;;;;23.00;60.90;;;;;;6278447;22;19917;-76
2023/07/16 03:01:39;;;;;;;;;;;22.90;60.90;;;;;;6277866;22;19903;-76
2023/07/16 03:04:05;;;;;;;;;;;22.90;60.90;;;;;;6278259;22;19915;-76
2023/07/16 03:06:30;;;;;;;;;;;22.80;60.90;;;;;;6277773;22;19903;-75
2023/07/16 03:08:56;;;;;;;;;;;22.80;61.00;;;;;;6277903;22;19942;-75
2023/07/16 03:11:22;;;;;;;;;;;22.70;61.00;;;;;;6278428;22;19969;-76
2023/07/16 03:13:47;;;;;;;;;;;22.70;61.10;;;;;;6277784;22;19904;-76
2023/07/16 03:16:12;;;;;;;;;;;22.60;61.20;;;;;;6278077;22;20412;-75
2023/07/16 03:18:38;;;;;;;;;;;22.50;61.20;;;;;;6277671;22;20248;-77
2023/07/16 03:21:03;;;;;;;;;;;22.50;61.30;;;;;;6278019;22;20240;-76
2023/07/16 03:23:29;;;;;;;;;;;22.50;61.30;;;;;;6277692;22;20276;-76
2023/07/16 03:25:54;;;;;;;;;;;22.40;61.40;;;;;;6276364;22;19982;-75
2023/07/16 03:28:20;;;;;;;;;;;22.40;61.50;;;;;;6276458;22;19907;-76
2023/07/16 03:30:49;;;;;;;;;;;22.40;61.50;;;;;;6248913;22;19911;-76
2023/07/16 03:33:14;;;;;;;;;;;22.40;61.60;;;;;;6276097;22;20246;-76
2023/07/16 03:35:42;;;;;;;;;;;22.30;61.70;;;;;;6248775;22;19911;-77
2023/07/16 03:38:07;;;;;;;;;;;22.30;61.70;;;;;;6276182;22;20360;-77
2023/07/16 03:40:33;;;;;;;;;;;22.30;61.80;;;;;;6276173;22;19911;-76
2023/07/16 03:42:58;;;;;;;;;;;22.30;61.80;;;;;;6275859;22;19915;-76
2023/07/16 03:45:24;;;;;;;;;;;22.30;61.90;;;;;;6276500;22;19911;-77
2023/07/16 03:47:49;;;;;;;;;;;22.30;62.10;;;;;;6248589;22;19935;-77
2023/07/16 03:50:14;;;;;;;;;;;22.30;62.20;;;;;;6275942;22;19919;-76
2023/07/16 03:52:40;;;;;;;;;;;22.40;62.30;;;;;;6275811;22;19904;-76
2023/07/16 03:55:06;;;;;;;;;;;22.50;62.30;;;;;;6275970;22;20194;-77
2023/07/16 03:57:32;;;;;;;;;;;22.60;62.10;;;;;;6275753;22;20191;-77
2023/07/16 03:59:57;;;;;;;;;;;22.60;61.80;;;;;;6275897;22;20017;-76
2023/07/16 04:02:24;;;;;;;;;;;22.60;61.70;;;;;;6276169;22;20340;-76
2023/07/16 04:04:50;;;;;;;;;;;22.60;61.90;;;;;;6275678;22;19911;-76
2023/07/16 04:07:15;;;;;;;;;;;22.70;61.90;;;;;;6275854;22;19907;-76
2023/07/16 04:09:41;;;;;;;;;;;22.70;62.00;;;;;;6275599;22;19903;-76
2023/07/16 04:12:06;;;;;;;;;;;22.80;62.00;;;;;;6276079;22;19907;-77
2023/07/16 04:14:32;;;;;;;;;;;22.90;62.00;;;;;;6275507;22;20309;-75
2023/07/16 04:16:58;;;;;;;;;;;23.10;62.30;;;;;;6248475;22;19958;-76
2023/07/16 04:19:23;;;;;;;;;;;23.30;62.00;;;;;;6276040;22;19907;-76
2023/07/16 04:21:49;;;;;;;;;;;23.60;61.30;;;;;;6276025;22;20059;-76
2023/07/16 04:24:14;;;;;;;;;;;23.80;61.30;;;;;;6275373;22;19914;-76
2023/07/16 04:26:39;;;;;;;;;;;24.20;60.50;;;;;;6276000;22;19912;-77
2023/07/16 04:29:05;;;;;;;;;;;24.40;59.90;;;;;;6275586;22;19910;-77
2023/07/16 04:31:30;;;;;;;;;;;24.80;59.60;;;;;;6275846;22;20271;-77
2023/07/16 04:33:56;;;;;;;;;;;25.00;58.70;;;;;;6275714;22;19915;-74
2023/07/16 04:36:21;;;;;;;;;;;25.20;58.40;;;;;;6275871;22;19991;-77
2023/07/16 04:38:47;;;;;;;;;;;25.40;56.20;;;;;;6275478;22;19903;-77
2023/07/16 04:41:12;;;;;;;;;;;25.30;55.60;;;;;;6275786;22;19911;-76
2023/07/16 04:43:38;;;;;;;;;;;25.30;55.10;;;;;;6275334;22;19907;-77
2023/07/16 04:46:03;;;;;;;;;;;25.20;55.00;;;;;;6275344;22;19947;-77
2023/07/16 04:48:29;;;;;;;;;;;25.40;56.00;;;;;;6275385;22;19910;-76
2023/07/16 04:50:54;;;;;;;;;;;25.80;56.40;;;;;;6275934;22;20309;-77
2023/07/16 04:53:21;;;;;;;;;;;26.20;56.10;;;;;;6275386;22;19904;-77
2023/07/16 04:55:46;;;;;;;;;;;26.50;54.90;;;;;;6275151;22;19985;-77
2023/07/16 04:58:12;;;;;;;;;;;26.80;53.40;;;;;;6275536;22;20329;-77
2023/07/16 05:00:37;;;;;;;;;;;27.20;53.00;;;;;;6275368;22;19911;-77
2023/07/16 05:03:03;;;;;;;;;;;27.50;52.00;;;;;;6275259;22;19942;-77
2023/07/16 05:05:28;;;;;;;;;;;27.80;51.20;;;;;;6248122;22;19913;-77
2023/07/16 05:07:54;;;;;;;;;;;28.10;50.50;;;;;;6275855;22;19914;-78
2023/07/16 05:10:19;;;;;;;;;;;28.30;50.00;;;;;;6274937;22;19908;-77
2023/07/16 05:12:45;;;;;;;;;;;28.40;49.10;;;;;;6274979;22;20272;-77
2023/07/16 05:15:10;;;;;;;;;;;28.50;48.90;;;;;;6275145;22;19908;-77
2023/07/16 05:17:36;;;;;;;;;;;28.70;49.30;;;;;;6275067;22;19915;-77
2023/07/16 05:20:02;;;;;;;;;;;28.80;48.50;;;;;;6275137;22;19907;-77
2023/07/16 05:22:28;;;;;;;;;;;29.10;47.60;;;;;;6274859;22;19946;-76
2023/07/16 05:24:53;;;;;;;;;;;29.30;47.30;;;;;;6275095;22;20206;-77
2023/07/16 05:27:19;;;;;;;;;;;29.70;47.40;;;;;;6275005;22;20237;-77
2023/07/16 05:29:44;;;;;;;;;;;30.00;46.20;;;;;;6274875;22;19934;-77
2023/07/16 05:32:10;;;;;;;;;;;30.30;45.80;;;;;;6274967;22;19907;-78
2023/07/16 05:34:35;;;;;;;;;;;30.70;44.30;;;;;;6274911;22;20291;-78
2023/07/16 05:37:01;;;;;;;;;;;31.10;44.10;;;;;;6247747;22;19986;-77
2023/07/16 05:39:26;;;;;;;;;;;31.40;41.70;;;;;;6275361;22;19907;-78
2023/07/16 05:41:52;;;;;;;;;;;31.70;41.00;;;;;;6275226;22;19907;-78
2023/07/16 05:44:17;;;;;;;;;;;32.00;40.70;;;;;;6274819;22;19915;-78
2023/07/16 05:46:42;;;;;;;;;;;32.30;37.80;;;;;;6274483;22;19947;-78
2023/07/16 05:49:08;;;;;;;;;;;32.50;38.00;;;;;;6274400;22;19965;-78
2023/07/16 05:51:33;;;;;;;;;;;32.80;37.70;;;;;;6275303;22;19942;-78
2023/07/16 05:53:59;;;;;;;;;;;33.10;37.00;;;;;;6275192;22;19907;-78
2023/07/16 05:56:24;;;;;;;;;;;33.30;34.80;;;;;;6275078;22;19940;-78
2023/07/16 05:58:50;;;;;;;;;;;33.30;34.30;;;;;;6274793;22;20237;-77
2023/07/16 06:01:15;;;;;;;;;;;33.40;33.80;;;;;;6275046;22;20040;-78
2023/07/16 06:03:41;;;;;;;;;;;33.40;32.50;;;;;;6274737;22;19957;-77
2023/07/16 06:06:08;;;;;;;;;;;33.50;32.40;;;;;;6275074;22;19923;-77
2023/07/16 06:08:34;;;;;;;;;;;33.60;31.40;;;;;;6274823;22;20310;-77
2023/07/16 06:10:59;;;;;;;;;;;33.60;31.20;;;;;;6274734;22;19946;-78
2023/07/16 06:13:25;;;;;;;;;;;33.70;31.60;;;;;;6275215;22;19904;-79
2023/07/16 06:15:50;;;;;;;;;;;33.90;29.70;;;;;;6274457;22;19915;-77
2023/07/16 06:18:16;;;;;;;;;;;34.00;29.20;;;;;;6274649;22;20334;-78
2023/07/16 06:20:44;;;;;;;;;;;34.10;28.70;;;;;;6274963;22;19912;-78
2023/07/16 06:23:11;;;;;;;;;;;34.20;28.60;;;;;;6274381;22;19943;-78
2023/07/16 06:25:36;;;;;;;;;;;34.30;28.40;;;;;;6274694;22;20342;-78
2023/07/16 06:28:02;;;;;;;;;;;34.50;28.10;;;;;;6274894;22;19903;-78
2023/07/16 06:30:27;;;;;;;;;;;34.60;27.80;;;;;;6275037;22;19911;-78
2023/07/16 06:32:53;;;;;;;;;;;34.80;27.60;;;;;;6274583;22;20233;-78
2023/07/16 06:35:18;;;;;;;;;;;35.10;26.90;;;;;;6274698;22;19911;-77
2023/07/16 06:37:44;;;;;;;;;;;35.20;26.00;;;;;;6274524;22;20025;-78
2023/07/16 06:40:09;;;;;;;;;;;34.90;25.40;;;;;;6274743;22;19918;-76
2023/07/16 06:42:35;;;;;;;;;;;34.70;26.10;;;;;;6274283;22;19908;-76
2023/07/16 06:45:00;;;;;;;;;;;34.70;26.60;;;;;;6274836;22;19918;-73
2023/07/16 06:47:26;;;;;;;;;;;34.80;26.90;;;;;;6274888;22;19990;-77
2023/07/16 06:49:51;;;;;;;;;;;34.90;26.60;;;;;;6274459;22;19973;-76
2023/07/16 06:52:21;;;;;;;;;;;35.10;25.90;;;;;;6274524;22;19911;-77
2023/07/16 06:54:46;;;;;;;;;;;35.00;25.20;;;;;;6274510;22;19981;-76
2023/07/16 06:57:12;;;;;;;;;;;34.70;25.60;;;;;;6274337;22;19919;-76
2023/07/16 06:59:37;;;;;;;;;;;34.40;25.60;;;;;;6275346;22;20240;-77
2023/07/16 07:02:03;;;;;;;;;;;34.30;26.00;;;;;;6276212;22;19957;-77
2023/07/16 07:04:28;;;;;;;;;;;34.30;25.80;;;;;;6276617;22;19907;-77
2023/07/16 07:06:53;;;;;;;;;;;34.20;26.30;;;;;;6276869;22;20313;-77
2023/07/16 07:09:19;;;;;;;;;;;34.20;26.00;;;;;;6276242;22;20218;-77
2023/07/16 07:11:44;;;;;;;;;;;33.80;25.70;;;;;;6276686;22;19918;-77
2023/07/16 07:14:10;;;;;;;;;;;33.60;26.40;;;;;;6276315;22;19903;-77
2023/07/16 07:16:35;;;;;;;;;;;33.50;25.80;;;;;;6276802;22;19987;-78
2023/07/16 07:19:01;;;;;;;;;;;33.10;25.90;;;;;;6276423;22;19929;-74
2023/07/16 07:21:26;;;;;;;;;;;32.60;26.00;;;;;;6276940;22;19915;-77
2023/07/16 07:23:52;;;;;;;;;;;32.10;26.40;;;;;;6276025;22;20276;-78
2023/07/16 07:26:17;;;;;;;;;;;31.60;27.00;;;;;;6276579;22;19946;-79
2023/07/16 07:28:42;;;;;;;;;;;31.30;27.50;;;;;;6276266;22;19953;-79
2023/07/16 07:31:08;;;;;;;;;;;31.10;28.10;;;;;;6276440;22;19994;-78
2023/07/16 07:33:33;;;;;;;;;;;31.20;28.40;;;;;;6276246;22;19903;-78
2023/07/16 07:35:59;;;;;;;;;;;31.50;28.30;;;;;;6276544;22;20314;-77
2023/07/16 07:38:24;;;;;;;;;;;32.00;27.70;;;;;;6276118;22;20384;-76
2023/07/16 07:40:50;;;;;;;;;;;32.40;28.00;;;;;;6276025;22;19915;-76
2023/07/16 07:43:15;;;;;;;;;;;32.70;27.20;;;;;;6275953;22;20240;-77
2023/07/16 07:45:41;;;;;;;;;;;32.70;26.80;;;;;;6276158;22;19911;-77
2023/07/16 07:48:06;;;;;;;;;;;32.60;27.00;;;;;;6275983;22;19938;-76
2023/07/16 07:50:31;;;;;;;;;;;32.40;27.10;;;;;;6276068;22;19912;-75
2023/07/16 07:52:57;;;;;;;;;;;32.30;27.60;;;;;;6276110;22;19953;-76
2023/07/16 07:55:22;;;;;;;;;;;32.50;27.90;;;;;;6274333;22;19911;-77
2023/07/16 07:57:48;;;;;;;;;;;33.10;28.10;;;;;;6273454;22;19937;-78
2023/07/16 08:00:13;;;;;;;;;;;33.90;28.00;;;;;;6275978;22;20292;-77
2023/07/16 08:02:40;;;;;;;;;;;34.70;27.70;;;;;;6274979;22;19915;-77
2023/07/16 08:05:06;;;;;;;;;;;35.60;26.70;;;;;;6274630;22;20310;-78
2023/07/16 08:07:31;;;;;;;;;;;36.00;25.10;;;;;;6247546;22;19907;-74
2023/07/16 08:09:56;;;;;;;;;;;36.30;24.20;;;;;;6275992;22;19908;-78
2023/07/16 08:12:22;;;;;;;;;;;36.30;24.20;;;;;;6274876;22;20089;-77
2023/07/16 08:14:47;;;;;;;;;;;36.40;24.20;;;;;;6275788;22;19911;-79
2023/07/16 08:17:13;;;;;;;;;;;36.40;23.90;;;;;;6275811;22;19907;-76
2023/07/16 08:19:38;;;;;;;;;;;36.10;23.90;;;;;;6275490;22;19907;-76
2023/07/16 08:22:04;;;;;;;;;;;36.10;24.40;;;;;;6275684;22;20325;-77
2023/07/16 08:24:30;;;;;;;;;;;36.00;23.70;;;;;;6275779;22;19907;-77
2023/07/16 08:26:55;;;;;;;;;;;35.80;23.80;;;;;;6275524;22;20037;-77
2023/07/16 08:29:20;;;;;;;;;;;35.70;23.50;;;;;;6248434;22;19910;-77
2023/07/16 08:31:46;;;;;;;;;;;35.60;23.50;;;;;;6275515;22;19911;-77
2023/07/16 08:34:11;;;;;;;;;;;35.70;24.00;;;;;;6274862;22;19913;-75
2023/07/16 08:36:39;;;;;;;;;;;36.20;24.10;;;;;;6275739;22;19915;-77
2023/07/16 08:39:05;;;;;;;;;;;36.50;23.20;;;;;;6275617;22;20283;-78
2023/07/16 08:41:31;;;;;;;;;;;36.70;22.30;;;;;;6274971;22;19960;-74
2023/07/16 08:43:56;;;;;;;;;;;36.60;21.90;;;;;;6275441;22;19915;-75
2023/07/16 08:46:22;;;;;;;;;;;36.40;22.20;;;;;;6275474;22;19912;-76
2023/07/16 08:48:48;;;;;;;;;;;36.20;22.20;;;;;;6275343;22;19914;-78
2023/07/16 08:51:14;;;;;;;;;;;35.80;22.60;;;;;;6274517;22;19911;-77
2023/07/16 08:53:40;;;;;;;;;;;35.60;22.90;;;;;;6248112;22;19982;-78
2023/07/16 08:56:05;;;;;;;;;;;35.30;23.00;;;;;;6275280;22;20345;-77
2023/07/16 08:58:31;;;;;;;;;;;35.20;22.90;;;;;;6275240;22;19904;-76
2023/07/16 09:00:58;;;;;;;;;;;34.80;23.00;;;;;;6248199;22;19915;-77
2023/07/16 09:03:23;;;;;;;;;;;34.80;23.00;;;;;;6274562;22;19965;-78
2023/07/16 09:05:49;;;;;;;;;;;34.80;23.30;;;;;;6274885;22;19911;-79
2023/07/16 09:08:14;;;;;;;;;;;35.00;23.20;;;;;;6274897;22;19903;-80
2023/07/16 09:10:41;;;;;;;;;;;35.30;22.70;;;;;;6275708;22;19917;-78
2023/07/16 09:13:06;;;;;;;;;;;35.30;22.50;;;;;;6275239;22;19953;-78
2023/07/16 09:15:33;;;;;;;;;;;35.70;22.70;;;;;;6274396;22;19911;-76
2023/07/16 09:17:59;;;;;;;;;;;35.90;22.30;;;;;;6275317;22;19925;-77
2023/07/16 09:20:25;;;;;;;;;;;36.30;22.20;;;;;;6246282;22;19916;-77
2023/07/16 09:22:54;;;;;;;;;;;36.80;21.30;;;;;;6273989;22;19946;-77
2023/07/16 09:25:25;;;;;;;;;;;37.00;21.20;;;;;;6274714;22;19919;-78
2023/07/16 09:27:50;;;;;;;;;;;37.20;20.90;;;;;;6275274;22;19914;-78
2023/07/16 09:30:16;;;;;;;;;;;37.30;20.70;;;;;;6274003;22;20261;-77
2023/07/16 09:32:41;;;;;;;;;;;37.10;20.50;;;;;;6274855;22;19904;-79
2023/07/16 09:35:09;;;;;;;;;;;37.00;21.00;;;;;;6275091;22;20330;-77
2023/07/16 09:37:35;;;;;;;;;;;37.30;20.90;;;;;;6274853;22;19931;-77
2023/07/16 09:40:03;;;;;;;;;;;37.50;20.60;;;;;;6274694;22;20270;-77
2023/07/16 09:42:28;;;;;;;;;;;37.70;20.60;;;;;;6248000;22;19910;-77
2023/07/16 09:44:54;;;;;;;;;;;37.90;20.90;;;;;;6274534;22;20318;-78
2023/07/16 09:47:19;;;;;;;;;;;38.00;20.50;;;;;;6274828;22;19965;-76
2023/07/16 09:49:45;;;;;;;;;;;38.00;20.00;;;;;;6273755;22;19911;-78
2023/07/16 09:52:11;;;;;;;;;;;37.90;19.90;;;;;;6274334;22;19982;-78
2023/07/16 09:54:38;;;;;;;;;;;37.80;20.20;;;;;;6274653;22;20002;-79
2023/07/16 09:57:04;;;;;;;;;;;37.80;19.60;;;;;;6274294;22;20025;-76
2023/07/16 09:59:31;;;;;;;;;;;38.00;20.20;;;;;;6275104;22;19903;-76
2023/07/16 10:01:57;;;;;;;;;;;38.30;20.30;;;;;;6274724;22;20337;-77
2023/07/16 10:04:23;;;;;;;;;;;38.70;19.80;;;;;;6274073;22;19911;-79
2023/07/16 10:06:52;;;;;;;;;;;39.10;19.40;;;;;;6275326;22;19918;-77
2023/07/16 10:09:33;;;;;;;;;;;39.20;18.90;;;;;;6274757;22;20341;-76
2023/07/16 10:12:14;;;;;;;;;;;39.20;18.50;;;;;;6274271;22;19911;-76
2023/07/16 10:14:47;;;;;;;;;;;39.10;18.80;;;;;;6274827;22;20213;-77
2023/07/16 10:17:20;;;;;;;;;;;39.20;18.80;;;;;;6246484;22;19907;-77
2023/07/16 10:19:49;;;;;;;;;;;39.20;18.90;;;;;;6274442;22;20322;-76
2023/07/16 10:22:15;;;;;;;;;;;39.20;19.00;;;;;;6274257;22;19986;-78
2023/07/16 10:24:40;;;;;;;;;;;39.20;19.00;;;;;;6274320;22;20333;-78
2023/07/16 10:27:06;;;;;;;;;;;39.10;19.10;;;;;;6273371;22;19950;-77
2023/07/16 10:29:31;;;;;;;;;;;39.00;18.90;;;;;;6274761;22;19964;-76
2023/07/16 10:31:58;;;;;;;;;;;38.50;18.90;;;;;;6274634;22;19930;-78
2023/07/16 10:34:23;;;;;;;;;;;38.00;19.30;;;;;;6274935;22;19914;-76
2023/07/16 10:36:50;;;;;;;;;;;37.80;19.60;;;;;;6277128;22;19912;-76
2023/07/16 10:39:15;;;;;;;;;;;37.60;20.00;;;;;;6276318;22;19910;-78
2023/07/16 10:41:41;;;;;;;;;;;37.80;19.80;;;;;;6276542;22;19990;-77
2023/07/16 10:44:11;;;;;;;;;;;37.60;19.50;;;;;;6276423;22;19915;-77
2023/07/16 10:46:37;;;;;;;;;;;37.40;19.60;;;;;;6248861;22;20335;-79
2023/07/16 10:49:02;;;;;;;;;;;37.30;20.00;;;;;;6276899;22;19909;-78
2023/07/16 10:51:28;;;;;;;;;;;37.40;20.10;;;;;;6276939;22;19938;-77
2023/07/16 10:53:56;;;;;;;;;;;37.40;20.00;;;;;;6274931;22;19918;-76
2023/07/16 10:56:22;;;;;;;;;;;37.30;20.30;;;;;;6275874;22;19915;-77
2023/07/16 10:58:48;;;;;;;;;;;37.40;20.30;;;;;;6248828;22;20178;-77
2023/07/16 11:01:14;;;;;;;;;;;37.50;20.40;;;;;;6276254;22;20241;-77
2023/07/16 11:03:39;;;;;;;;;;;37.70;19.80;;;;;;6275696;22;19907;-76
2023/07/16 11:06:09;;;;;;;;;;;37.80;20.00;;;;;;6276786;22;19918;-78
2023/07/16 11:08:34;;;;;;;;;;;38.00;19.90;;;;;;6275727;22;20337;-76
2023/07/16 11:11:00;;;;;;;;;;;38.00;19.40;;;;;;6276948;22;20030;-77
2023/07/16 11:13:26;;;;;;;;;;;38.00;19.70;;;;;;6275325;22;19903;-78
2023/07/16 11:15:51;;;;;;;;;;;38.30;19.40;;;;;;6276508;22;19922;-77
2023/07/16 11:18:18;;;;;;;;;;;38.40;18.90;;;;;;6276269;22;19907;-77
2023/07/16 11:20:43;;;;;;;;;;;38.40;18.90;;;;;;6248763;22;20322;-78
2023/07/16 11:23:10;;;;;;;;;;;38.50;19.00;;;;;;6276035;22;19998;-77
2023/07/16 11:25:35;;;;;;;;;;;38.60;19.30;;;;;;6276301;22;19911;-77
2023/07/16 11:28:01;;;;;;;;;;;38.70;18.90;;;;;;6248546;22;19911;-78
2023/07/16 11:30:27;;;;;;;;;;;38.60;18.90;;;;;;6276148;22;19986;-78
2023/07/16 11:32:53;;;;;;;;;;;38.40;18.90;;;;;;6275328;22;20014;-79
2023/07/16 11:35:20;;;;;;;;;;;38.30;18.80;;;;;;6276092;22;20313;-77
2023/07/16 11:37:46;;;;;;;;;;;38.00;19.40;;;;;;6275911;22;19903;-76
2023/07/16 11:40:14;;;;;;;;;;;38.10;19.60;;;;;;6275905;22;19911;-78
2023/07/16 11:42:41;;;;;;;;;;;38.20;19.70;;;;;;6275750;22;19911;-77
2023/07/16 11:45:17;;;;;;;;;;;38.20;19.40;;;;;;6275665;22;19938;-77
2023/07/16 11:47:42;;;;;;;;;;;38.20;19.50;;;;;;6274773;22;20330;-77
2023/07/16 11:50:08;;;;;;;;;;;38.20;19.40;;;;;;6275994;22;19912;-77
2023/07/16 11:52:33;;;;;;;;;;;38.20;19.90;;;;;;6275506;22;19903;-77
2023/07/16 11:55:03;;;;;;;;;;;38.40;19.20;;;;;;6275819;22;19939;-77
2023/07/16 11:57:29;;;;;;;;;;;38.50;19.30;;;;;;6248925;22;19915;-78
2023/07/16 11:59:55;;;;;;;;;;;38.60;19.00;;;;;;6275321;22;19915;-77
2023/07/16 12:02:21;;;;;;;;;;;38.70;18.80;;;;;;6248492;22;19903;-78
2023/07/16 12:04:46;;;;;;;;;;;38.60;18.80;;;;;;6275383;22;19913;-78
2023/07/16 12:07:12;;;;;;;;;;;38.30;18.90;;;;;;6275755;22;20304;-77
2023/07/16 12:09:37;;;;;;;;;;;38.00;18.90;;;;;;6276074;22;19903;-78
2023/07/16 12:12:03;;;;;;;;;;;37.70;18.90;;;;;;6275581;22;19904;-78
2023/07/16 12:14:28;;;;;;;;;;;37.50;19.20;;;;;;6275826;22;19903;-79
2023/07/16 12:16:54;;;;;;;;;;;37.30;19.70;;;;;;6275398;22;20463;-78
2023/07/16 12:19:19;;;;;;;;;;;37.20;19.80;;;;;;6275729;22;19909;-77
2023/07/16 12:21:45;;;;;;;;;;;37.00;19.80;;;;;;6275506;22;19919;-78
2023/07/16 12:24:11;;;;;;;;;;;36.70;20.10;;;;;;6275003;22;19908;-77
2023/07/16 12:26:37;;;;;;;;;;;36.40;20.40;;;;;;6275373;22;20352;-77
2023/07/16 12:29:03;;;;;;;;;;;36.20;20.80;;;;;;6275196;22;19903;-76
2023/07/16 12:31:31;;;;;;;;;;;36.10;20.90;;;;;;6275972;22;19917;-79
2023/07/16 12:33:57;;;;;;;;;;;36.00;21.00;;;;;;6275645;22;20280;-78
2023/07/16 12:36:23;;;;;;;;;;;35.80;21.10;;;;;;6275595;22;19912;-78
2023/07/16 12:38:48;;;;;;;;;;;35.80;21.40;;;;;;6275572;22;20249;-79
2023/07/16 12:41:15;;;;;;;;;;;35.70;21.30;;;;;;6275706;22;19919;-77
2023/07/16 12:43:40;;;;;;;;;;;35.70;21.40;;;;;;6274423;22;20361;-77
2023/07/16 12:46:05;;;;;;;;;;;35.70;21.70;;;;;;6248258;22;19938;-76
2023/07/16 12:48:31;;;;;;;;;;;35.80;21.70;;;;;;6275165;22;19904;-74
2023/07/16 12:50:57;;;;;;;;;;;36.00;21.60;;;;;;6275850;22;19916;-78
2023/07/16 12:53:23;;;;;;;;;;;36.20;21.20;;;;;;6275033;22;19990;-78
2023/07/16 12:55:48;;;;;;;;;;;36.20;21.30;;;;;;6275226;22;19911;-78
2023/07/16 12:58:14;;;;;;;;;;;36.40;21.30;;;;;;6274369;22;19926;-78
2023/07/16 13:00:39;;;;;;;;;;;36.70;21.40;;;;;;6273416;22;19916;-76
2023/07/16 13:03:05;;;;;;;;;;;37.00;21.00;;;;;;6275272;22;19989;-77
2023/07/16 13:05:30;;;;;;;;;;;37.00;20.80;;;;;;6276001;22;19911;-77
2023/07/16 13:07:56;;;;;;;;;;;36.80;20.70;;;;;;6275009;22;19910;-76
2023/07/16 13:10:22;;;;;;;;;;;36.70;20.80;;;;;;6275410;22;19919;-77
2023/07/16 13:12:47;;;;;;;;;;;36.80;20.70;;;;;;6275201;22;19911;-77
2023/07/16 13:15:13;;;;;;;;;;;37.10;20.60;;;;;;6272902;22;19982;-78
2023/07/16 13:17:38;;;;;;;;;;;37.30;20.00;;;;;;6274346;22;20379;-77
2023/07/16 13:20:05;;;;;;;;;;;37.40;19.80;;;;;;6275060;22;20378;-78
2023/07/16 13:22:30;;;;;;;;;;;37.30;19.50;;;;;;6244129;22;19904;-77
2023/07/16 13:24:56;;;;;;;;;;;36.90;20.10;;;;;;6246866;22;20064;-78
2023/07/16 13:27:22;;;;;;;;;;;37.00;20.40;;;;;;6275034;22;19911;-78
2023/07/16 13:29:48;;;;;;;;;;;37.00;20.50;;;;;;6273874;22;20321;-78
2023/07/16 13:32:13;;;;;;;;;;;37.00;20.40;;;;;;6271353;22;19934;-77
2023/07/16 13:34:38;;;;;;;;;;;36.80;20.40;;;;;;6274527;22;19953;-78
2023/07/16 13:37:04;;;;;;;;;;;36.60;20.80;;;;;;6274620;22;19907;-77
2023/07/16 13:39:29;;;;;;;;;;;36.40;21.00;;;;;;6274752;22;19903;-77
2023/07/16 13:41:55;;;;;;;;;;;36.40;21.10;;;;;;6268819;22;19911;-77
2023/07/16 13:44:20;;;;;;;;;;;36.30;21.30;;;;;;6274713;22;19907;-77
2023/07/16 13:46:46;;;;;;;;;;;36.60;21.40;;;;;;6274317;22;19990;-77
2023/07/16 13:49:12;;;;;;;;;;;36.70;21.10;;;;;;6274814;22;19908;-78
2023/07/16 13:51:37;;;;;;;;;;;36.70;21.20;;;;;;6270472;22;19961;-77
2023/07/16 13:54:03;;;;;;;;;;;36.80;20.80;;;;;;6275098;22;20370;-77
2023/07/16 13:56:28;;;;;;;;;;;36.80;20.90;;;;;;6273825;22;19916;-76
2023/07/16 13:58:54;;;;;;;;;;;36.70;21.00;;;;;;6274669;22;20001;-77
2023/07/16 14:01:21;;;;;;;;;;;36.80;21.00;;;;;;6270433;22;21281;-78
2023/07/16 14:03:47;;;;;;;;;;;36.90;21.10;;;;;;6274599;22;20344;-77
2023/07/16 14:06:12;;;;;;;;;;;37.20;21.10;;;;;;6274500;22;19912;-77
2023/07/16 14:08:38;;;;;;;;;;;37.20;20.80;;;;;;6273333;22;20361;-77